createdAt,value
2018-07-22T00:01:23.969Z,67.60
2018-07-22T00:03:52.186Z,67.80
2018-07-22T00:06:21.030Z,67.90
2018-07-22T00:08:49.597Z,67.80
2018-07-22T00:11:18.204Z,67.70
2018-07-22T00:13:46.780Z,67.70
2018-07-22T00:16:15.688Z,67.80
2018-07-22T00:18:43.938Z,67.90
2018-07-22T00:21:12.545Z,67.90
2018-07-22T00:23:40.801Z,68.00
2018-07-22T00:26:09.706Z,67.70
2018-07-22T00:28:38.584Z,67.70
2018-07-22T00:31:07.293Z,68.20
2018-07-22T00:33:35.877Z,68.60
2018-07-22T00:36:04.481Z,68.90
2018-07-22T00:38:33.320Z,69.20
2018-07-22T00:41:01.897Z,69.10
2018-07-22T00:43:30.421Z,69.10
2018-07-22T00:45:59.010Z,69.20
2018-07-22T00:48:27.572Z,69.00
2018-07-22T00:50:56.478Z,68.80
2018-07-22T00:53:25.502Z,68.20
2018-07-22T00:55:54.121Z,68.20
2018-07-22T00:58:23.286Z,68.20
2018-07-22T01:00:51.885Z,68.40
2018-07-22T01:03:20.726Z,68.30
2018-07-22T01:05:49.673Z,68.30
2018-07-22T01:08:18.230Z,68.20
2018-07-22T01:10:46.785Z,67.90
2018-07-22T01:13:15.929Z,67.80
2018-07-22T01:15:45.154Z,68.00
2018-07-22T01:18:13.999Z,68.00
2018-07-22T01:20:42.250Z,68.10
2018-07-22T01:23:11.416Z,68.10
2018-07-22T01:25:39.986Z,68.10
2018-07-22T01:28:08.810Z,68.10
2018-07-22T01:30:37.310Z,68.10
2018-07-22T01:33:06.213Z,68.20
2018-07-22T01:35:34.713Z,68.20
2018-07-22T01:38:03.205Z,68.10
2018-07-22T01:40:31.445Z,68.30
2018-07-22T01:43:00.032Z,68.40
2018-07-22T01:47:57.832Z,68.90
2018-07-22T01:50:26.422Z,69.00
2018-07-22T01:52:54.912Z,69.20
2018-07-22T01:55:23.264Z,69.20
2018-07-22T01:57:51.760Z,69.20
2018-07-22T02:00:20.590Z,69.30
2018-07-22T02:02:50.061Z,69.30
2018-07-22T02:05:18.888Z,69.30
2018-07-22T02:07:47.398Z,69.30
2018-07-22T02:10:15.888Z,69.30
2018-07-22T02:12:44.711Z,69.40
2018-07-22T02:15:13.205Z,69.70
2018-07-22T02:17:41.705Z,69.90
2018-07-22T02:20:09.917Z,70.00
2018-07-22T02:22:38.400Z,70.20
2018-07-22T02:25:06.887Z,71.10
2018-07-22T02:27:35.105Z,71.40
2018-07-22T02:30:03.777Z,71.90
2018-07-22T02:32:32.679Z,72.70
2018-07-22T02:35:00.924Z,73.50
2018-07-22T02:37:29.763Z,73.60
2018-07-22T02:39:58.269Z,74.30
2018-07-22T02:42:27.125Z,74.40
2018-07-22T02:44:55.613Z,74.50
2018-07-22T02:47:24.121Z,75.10
2018-07-22T02:49:53.290Z,75.70
2018-07-22T02:53:46.358Z,76.40
2018-07-22T02:56:14.596Z,77.40
2018-07-22T02:58:43.104Z,78.20
2018-07-22T03:01:11.602Z,78.20
2018-07-22T03:03:40.458Z,80.00
2018-07-22T03:06:08.995Z,80.10
2018-07-22T03:08:37.829Z,80.00
2018-07-22T03:11:06.693Z,80.50
2018-07-22T03:13:35.202Z,80.60
2018-07-22T03:16:04.033Z,81.20
2018-07-22T03:18:33.205Z,81.90
2018-07-22T03:21:02.051Z,82.80
2018-07-22T03:23:30.928Z,83.30
2018-07-22T03:25:59.798Z,84.00
2018-07-22T03:28:28.317Z,84.40
2018-07-22T03:30:57.601Z,84.90
2018-07-22T03:34:51.763Z,85.50
2018-07-22T03:37:20.288Z,86.50
2018-07-22T03:39:49.139Z,87.10
2018-07-22T03:42:17.997Z,87.40
2018-07-22T03:44:47.146Z,87.20
2018-07-22T03:47:15.971Z,87.10
2018-07-22T03:49:44.531Z,86.80
2018-07-22T03:52:13.377Z,86.70
2018-07-22T03:54:41.902Z,85.70
2018-07-22T03:57:10.408Z,85.20
2018-07-22T03:59:38.918Z,85.30
2018-07-22T04:02:07.750Z,85.30
2018-07-22T04:04:36.841Z,85.00
2018-07-22T04:07:05.742Z,84.60
2018-07-22T04:09:34.367Z,85.00
2018-07-22T04:12:02.878Z,85.30
2018-07-22T04:14:31.397Z,85.20
2018-07-22T04:16:59.912Z,85.30
2018-07-22T04:19:28.785Z,85.70
2018-07-22T04:21:57.295Z,85.80
2018-07-22T04:24:25.804Z,85.80
2018-07-22T04:26:54.324Z,85.60
2018-07-22T04:30:47.102Z,85.30
2018-07-22T04:33:15.960Z,85.50
2018-07-22T04:35:44.799Z,85.90
2018-07-22T04:38:14.149Z,86.60
2018-07-22T04:40:43.002Z,86.90
2018-07-22T04:43:11.707Z,87.10
2018-07-22T04:45:40.220Z,87.50
2018-07-22T04:48:08.729Z,87.20
2018-07-22T04:50:37.230Z,87.40
2018-07-22T04:53:05.800Z,87.40
2018-07-22T04:55:34.315Z,87.40
2018-07-22T04:58:02.804Z,87.60
2018-07-22T05:02:59.943Z,88.30
2018-07-22T05:05:28.792Z,90.00
2018-07-22T05:07:57.956Z,90.70
2018-07-22T05:10:27.142Z,90.80
2018-07-22T05:12:55.931Z,90.70
2018-07-22T05:15:25.137Z,91.80
2018-07-22T05:17:54.321Z,92.10
2018-07-22T05:20:23.777Z,92.60
2018-07-22T05:22:54.012Z,93.10
2018-07-22T05:25:22.838Z,94.40
2018-07-22T05:27:51.351Z,94.90
2018-07-22T05:30:19.873Z,95.40
2018-07-22T05:32:48.378Z,96.50
2018-07-22T05:35:16.934Z,97.20
2018-07-22T05:37:45.753Z,97.60
2018-07-22T05:40:14.253Z,97.80
2018-07-22T05:42:42.748Z,98.10
2018-07-22T05:45:11.345Z,98.10
2018-07-22T05:47:40.190Z,98.00
2018-07-22T05:50:09.029Z,98.30
2018-07-22T05:52:37.874Z,98.70
2018-07-22T05:55:06.757Z,99.10
2018-07-22T05:57:35.608Z,99.70
2018-07-22T06:00:05.577Z,99.90
2018-07-22T06:02:34.114Z,99.90
2018-07-22T06:05:03.308Z,99.90
2018-07-22T06:07:32.473Z,99.90
2018-07-22T06:10:00.977Z,99.90
2018-07-22T06:12:29.496Z,99.90
2018-07-22T06:14:58.698Z,99.90
2018-07-22T06:17:27.526Z,99.90
2018-07-22T06:19:56.053Z,99.90
2018-07-22T06:22:24.564Z,99.90
2018-07-22T06:24:53.422Z,99.90
2018-07-22T06:27:22.261Z,99.90
2018-07-22T06:29:51.106Z,99.90
2018-07-22T06:32:19.336Z,99.90
2018-07-22T06:34:48.173Z,99.90
2018-07-22T06:37:16.678Z,99.90
2018-07-22T06:39:45.509Z,99.90
2018-07-22T06:42:14.012Z,99.90
2018-07-22T06:44:42.843Z,99.90
2018-07-22T06:47:11.366Z,99.90
2018-07-22T06:49:40.218Z,99.90
2018-07-22T06:52:08.476Z,99.90
2018-07-22T06:54:37.330Z,99.90
2018-07-22T06:57:06.509Z,99.90
2018-07-22T06:59:35.697Z,99.90
2018-07-22T07:02:04.213Z,99.90
2018-07-22T07:04:32.737Z,99.90
2018-07-22T07:07:01.597Z,99.90
2018-07-22T07:09:29.867Z,99.90
2018-07-22T07:11:59.159Z,99.60
2018-07-22T07:14:31.236Z,99.20
2018-07-22T07:17:01.291Z,99.10
2018-07-22T07:19:29.752Z,99.00
2018-07-22T07:22:00.118Z,98.80
2018-07-22T07:24:29.025Z,98.60
2018-07-22T07:26:57.507Z,98.40
2018-07-22T07:29:25.744Z,98.30
2018-07-22T07:31:54.695Z,98.00
2018-07-22T07:34:23.307Z,97.90
2018-07-22T07:36:54.965Z,97.10
2018-07-22T07:39:23.799Z,96.80
2018-07-22T07:44:20.426Z,95.70
2018-07-22T07:46:49.341Z,95.50
2018-07-22T07:51:45.955Z,94.80
2018-07-22T07:54:16.820Z,94.20
2018-07-22T07:56:45.630Z,93.40
2018-07-22T07:59:14.472Z,93.30
2018-07-22T08:01:42.729Z,92.00
2018-07-22T08:04:11.282Z,90.70
2018-07-22T08:06:39.930Z,90.50
2018-07-22T08:09:09.964Z,90.30
2018-07-22T08:11:42.311Z,89.00
2018-07-22T08:14:11.952Z,86.20
2018-07-22T08:16:41.251Z,83.50
2018-07-22T08:19:10.675Z,84.80
2018-07-22T08:21:39.473Z,83.30
2018-07-22T08:24:07.827Z,81.70
2018-07-22T08:26:36.689Z,80.30
2018-07-22T08:29:17.261Z,80.30
2018-07-22T08:31:47.132Z,80.20
2018-07-22T08:34:16.983Z,77.30
2018-07-22T08:36:46.501Z,75.30
2018-07-22T08:39:15.019Z,75.60
2018-07-22T08:41:43.254Z,73.80
2018-07-22T08:44:11.825Z,74.00
2018-07-22T08:46:41.446Z,73.90
2018-07-22T08:49:09.686Z,73.30
2018-07-22T08:51:37.940Z,73.10
2018-07-22T08:54:07.091Z,72.50
2018-07-22T08:57:06.871Z,71.80
2018-07-22T08:59:36.489Z,70.30
2018-07-22T09:02:04.838Z,67.50
2018-07-22T09:04:34.737Z,66.50
2018-07-22T09:07:04.382Z,66.40
2018-07-22T09:09:33.889Z,67.80
2018-07-22T09:12:06.999Z,66.40
2018-07-22T09:17:35.220Z,64.20
2018-07-22T09:20:03.457Z,64.10
2018-07-22T09:22:32.567Z,62.60
2018-07-22T09:25:00.805Z,63.10
2018-07-22T09:27:29.424Z,61.90
2018-07-22T10:27:59.657Z,54.30
2018-07-22T10:30:27.886Z,54.70
2018-07-22T10:32:56.847Z,54.70
2018-07-22T10:35:26.381Z,53.80
2018-07-22T10:37:54.939Z,53.70
2018-07-22T10:40:23.856Z,53.80
2018-07-22T10:42:52.296Z,53.70
2018-07-22T10:45:21.200Z,54.10
2018-07-22T10:47:49.469Z,53.60
2018-07-22T10:50:18.366Z,53.60
2018-07-22T10:52:47.802Z,52.70
2018-07-22T10:55:16.032Z,52.80
2018-07-22T10:57:44.615Z,52.60
2018-07-22T11:00:12.849Z,51.50
2018-07-22T11:02:41.443Z,50.90
2018-07-22T11:05:10.185Z,50.70
2018-07-22T11:07:38.778Z,50.60
2018-07-22T11:10:07.350Z,50.80
2018-07-22T11:12:35.611Z,51.30
2018-07-22T11:15:05.523Z,51.50
2018-07-22T11:17:35.032Z,50.10
2018-07-22T11:20:03.298Z,50.10
2018-07-22T11:22:31.859Z,49.60
2018-07-22T11:25:00.936Z,49.70
2018-07-22T11:27:29.853Z,48.80
2018-07-22T11:29:59.137Z,48.90
2018-07-22T11:32:27.401Z,49.00
2018-07-22T11:34:56.230Z,49.80
2018-07-22T11:37:24.812Z,50.20
2018-07-22T11:39:54.042Z,50.30
2018-07-22T11:42:22.272Z,49.50
2018-07-22T11:44:51.971Z,50.10
2018-07-22T11:47:20.573Z,49.80
2018-07-22T11:49:51.202Z,50.80
2018-07-22T11:52:19.780Z,49.90
2018-07-22T11:54:48.033Z,50.40
2018-07-22T11:57:16.347Z,49.90
2018-07-22T11:59:46.610Z,51.00
2018-07-22T12:02:16.892Z,50.50
2018-07-22T12:04:45.673Z,49.80
2018-07-22T12:07:19.179Z,49.50
2018-07-22T12:09:48.788Z,49.40
2018-07-22T12:12:22.842Z,49.70
2018-07-22T12:14:51.881Z,50.00
2018-07-22T12:17:21.303Z,49.50
2018-07-22T12:22:18.971Z,48.60
2018-07-22T12:24:48.298Z,49.10
2018-07-22T12:27:17.845Z,49.50
2018-07-22T12:32:36.100Z,49.00
2018-07-22T12:35:19.184Z,49.00
2018-07-22T12:37:51.747Z,48.70
2018-07-22T12:40:20.732Z,48.50
2018-07-22T12:42:54.298Z,47.70
2018-07-22T12:45:29.598Z,48.30
2018-07-22T12:50:45.417Z,48.40
2018-07-22T12:53:18.585Z,48.70
2018-07-22T12:58:31.523Z,49.50
2018-07-22T13:06:15.941Z,48.80
2018-07-22T13:08:55.533Z,49.30
2018-07-22T13:11:34.402Z,49.20
2018-07-22T13:19:23.407Z,48.50
2018-07-22T13:21:53.901Z,48.90
2018-07-22T13:24:36.070Z,49.10
2018-07-22T13:30:03.837Z,49.30
2018-07-22T13:35:07.073Z,49.10
2018-07-22T13:40:15.191Z,48.80
2018-07-22T13:42:46.028Z,49.20
2018-07-22T13:45:19.074Z,48.70
2018-07-22T13:47:48.810Z,48.90
2018-07-22T13:50:23.289Z,49.00
2018-07-22T13:52:54.118Z,49.30
2018-07-22T13:55:23.748Z,49.10
2018-07-22T13:57:58.382Z,49.00
2018-07-22T14:00:27.827Z,48.40
2018-07-22T14:02:58.001Z,48.00
2018-07-22T14:05:30.426Z,47.00
2018-07-22T14:08:00.833Z,47.30
2018-07-22T14:10:31.219Z,48.00
2018-07-22T14:13:04.986Z,47.50
2018-07-22T14:15:34.427Z,47.80
2018-07-22T14:18:06.669Z,48.10
2018-07-22T14:20:39.892Z,48.40
2018-07-22T14:23:17.673Z,48.70
2018-07-22T14:28:27.246Z,49.00
2018-07-22T14:33:36.891Z,48.70
2018-07-22T14:36:08.094Z,49.20
2018-07-22T14:38:41.617Z,49.00
2018-07-22T14:41:15.372Z,48.60
2018-07-22T14:43:45.712Z,49.00
2018-07-22T14:46:14.593Z,49.40
2018-07-22T14:48:44.070Z,49.20
2018-07-22T14:51:12.701Z,49.40
2018-07-22T14:53:40.968Z,48.80
2018-07-22T14:56:09.246Z,49.30
2018-07-22T14:58:37.840Z,49.60
2018-07-22T15:01:06.071Z,49.50
2018-07-22T15:03:35.661Z,50.20
2018-07-22T15:06:03.893Z,50.00
2018-07-22T15:08:32.167Z,49.80
2018-07-22T15:11:01.130Z,49.60
2018-07-22T15:13:30.557Z,49.60
2018-07-22T15:16:03.552Z,49.30
2018-07-22T15:18:33.460Z,49.40
2018-07-22T15:21:03.331Z,50.10
2018-07-22T15:23:33.592Z,50.00
2018-07-22T15:26:02.324Z,50.30
2018-07-22T15:28:30.933Z,50.90
2018-07-22T15:30:59.602Z,50.50
2018-07-22T15:33:29.463Z,50.90
2018-07-22T15:35:58.470Z,50.30
2018-07-22T15:38:28.476Z,50.30
2018-07-22T15:40:57.104Z,50.70
2018-07-22T15:43:26.506Z,50.50
2018-07-22T15:45:57.489Z,50.10
2018-07-22T15:48:26.555Z,50.50
2018-07-22T15:50:55.637Z,50.90
2018-07-22T15:53:24.256Z,51.40
2018-07-22T15:55:54.193Z,54.10
2018-07-22T15:58:23.493Z,55.50
2018-07-22T16:00:59.950Z,56.40
2018-07-22T16:03:29.853Z,56.80
2018-07-22T16:05:58.968Z,56.30
2018-07-22T16:08:28.212Z,56.20
2018-07-22T16:10:58.691Z,56.50
2018-07-22T16:13:28.596Z,57.10
2018-07-22T16:19:30.145Z,56.90
2018-07-22T16:21:58.821Z,57.00
2018-07-22T16:24:27.433Z,57.50
2018-07-22T16:26:56.361Z,57.80
2018-07-22T16:29:24.654Z,57.70
2018-07-22T16:31:53.598Z,58.10
2018-07-22T16:34:22.179Z,58.20
2018-07-22T16:36:50.475Z,58.20
2018-07-22T16:39:19.163Z,58.30
2018-07-22T16:41:48.698Z,58.60
2018-07-22T16:44:17.951Z,58.80
2018-07-22T16:46:46.200Z,58.90
2018-07-22T16:49:14.441Z,58.80
2018-07-22T16:51:42.676Z,59.30
2018-07-22T16:54:10.967Z,59.50
2018-07-22T16:56:39.842Z,59.30
2018-07-22T16:59:08.057Z,59.60
2018-07-22T17:01:36.351Z,59.80
2018-07-22T17:04:04.963Z,59.80
2018-07-22T17:06:33.550Z,59.50
2018-07-22T17:09:03.342Z,59.80
2018-07-22T17:11:31.980Z,60.30
2018-07-22T17:14:04.365Z,60.00
2018-07-22T17:16:33.674Z,59.50
2018-07-22T17:19:02.961Z,59.10
2018-07-22T17:21:46.055Z,58.60
2018-07-22T17:24:19.712Z,58.10
2018-07-22T17:26:49.857Z,58.00
2018-07-22T17:29:18.274Z,57.60
2018-07-22T17:34:53.632Z,58.20
2018-07-22T17:37:22.584Z,57.40
2018-07-22T17:42:19.873Z,58.30
2018-07-22T17:44:48.453Z,59.40
2018-07-22T17:47:17.493Z,59.90
2018-07-22T17:49:46.400Z,60.30
2018-07-22T17:52:14.634Z,60.40
2018-07-22T17:54:42.923Z,60.70
2018-07-22T17:57:12.589Z,61.00
2018-07-22T17:59:40.861Z,61.40
2018-07-22T18:02:09.218Z,61.60
2018-07-22T18:04:37.823Z,61.70
2018-07-22T18:07:07.154Z,61.40
2018-07-22T18:09:36.213Z,61.80
2018-07-22T18:12:04.515Z,61.90
2018-07-22T18:14:34.213Z,61.40
2018-07-22T18:17:12.673Z,61.00
2018-07-22T18:19:48.727Z,61.30
2018-07-22T18:22:18.066Z,61.30
2018-07-22T18:24:47.585Z,60.70
2018-07-22T18:27:16.368Z,60.50
2018-07-22T18:29:45.789Z,60.80
2018-07-22T18:32:14.741Z,61.10
2018-07-22T18:34:43.051Z,60.70
2018-07-22T18:37:12.743Z,60.70
2018-07-22T18:39:42.375Z,61.20
2018-07-22T18:42:11.012Z,61.30
2018-07-22T18:44:40.081Z,61.60
2018-07-22T18:47:09.944Z,61.80
2018-07-22T18:49:38.358Z,62.20
2018-07-22T18:52:12.846Z,62.40
2018-07-22T18:54:42.701Z,63.40
2018-07-22T18:57:11.522Z,62.80
2018-07-22T18:59:40.860Z,62.80
2018-07-22T19:02:09.868Z,62.80
2018-07-22T19:04:38.469Z,62.90
2018-07-22T19:07:07.377Z,63.00
2018-07-22T19:09:36.411Z,63.20
2018-07-22T19:12:04.820Z,63.30
2018-07-22T19:14:34.125Z,63.60
2018-07-22T19:17:03.209Z,64.10
2018-07-22T19:19:31.842Z,64.30
2018-07-22T19:22:00.988Z,64.40
2018-07-22T19:24:29.602Z,64.70
2018-07-22T19:26:58.348Z,64.70
2018-07-22T19:29:26.929Z,64.90
2018-07-22T19:31:55.301Z,65.30
2018-07-22T19:34:24.209Z,65.80
2018-07-22T19:36:53.306Z,66.00
2018-07-22T19:39:22.110Z,66.30
2018-07-22T19:41:53.849Z,66.60
2018-07-22T19:44:24.034Z,66.90
2018-07-22T19:46:52.441Z,67.10
2018-07-22T19:49:20.743Z,67.90
2018-07-22T19:51:49.613Z,67.50
2018-07-22T19:54:18.213Z,67.90
2018-07-22T19:56:46.893Z,68.00
2018-07-22T19:59:15.592Z,68.30
2018-07-22T20:01:43.891Z,68.40
2018-07-22T20:04:13.325Z,68.70
2018-07-22T20:06:43.141Z,68.70
2018-07-22T20:09:12.729Z,68.80
2018-07-22T20:11:41.963Z,69.20
2018-07-22T20:14:10.665Z,69.50
2018-07-22T20:16:39.273Z,69.60
2018-07-22T20:19:07.877Z,69.80
2018-07-22T20:21:36.140Z,69.90
2018-07-22T20:24:04.391Z,69.90
2018-07-22T20:26:33.309Z,70.20
2018-07-22T20:29:01.785Z,70.30
2018-07-22T20:31:30.061Z,70.40
2018-07-22T20:33:58.621Z,70.40
2018-07-22T20:36:26.869Z,70.50
2018-07-22T20:38:55.460Z,70.60
2018-07-22T20:41:23.743Z,70.40
2018-07-22T20:43:51.991Z,71.10
2018-07-22T20:46:20.560Z,70.60
2018-07-22T20:48:49.137Z,70.60
2018-07-22T20:51:17.386Z,70.80
2018-07-22T20:53:45.769Z,70.90
2018-07-22T20:56:13.998Z,71.20
2018-07-22T20:58:42.238Z,71.40
2018-07-22T21:01:10.829Z,71.70
2018-07-22T21:03:39.432Z,72.00
2018-07-22T21:06:08.100Z,71.90
2018-07-22T21:08:37.010Z,72.00
2018-07-22T21:11:06.195Z,72.00
2018-07-22T21:13:34.413Z,72.10
2018-07-22T21:16:04.237Z,72.30
2018-07-22T21:18:32.799Z,72.60
2018-07-22T21:21:01.430Z,72.90
2018-07-22T21:23:30.186Z,73.30
2018-07-22T21:25:58.436Z,74.00
2018-07-22T21:28:27.372Z,74.00
2018-07-22T21:30:56.019Z,74.00
2018-07-22T21:33:24.597Z,74.40
2018-07-22T21:35:53.186Z,74.70
2018-07-22T21:41:21.409Z,75.40
2018-07-22T21:43:49.691Z,76.00
2018-07-22T21:46:17.985Z,77.00
2018-07-22T21:48:46.246Z,76.80
2018-07-22T21:51:14.832Z,77.30
2018-07-22T21:53:43.463Z,77.60
2018-07-22T21:56:11.763Z,78.30
2018-07-22T21:58:40.034Z,78.70
2018-07-22T22:01:08.973Z,78.80
2018-07-22T22:03:37.552Z,78.90
2018-07-22T22:06:06.322Z,79.50
2018-07-22T22:08:35.954Z,79.90
2018-07-22T22:11:06.207Z,80.20
2018-07-22T22:13:34.438Z,80.50
2018-07-22T22:16:07.582Z,80.80
2018-07-22T22:18:36.184Z,81.10
2018-07-22T22:21:05.077Z,81.50
2018-07-22T22:23:33.936Z,82.00
2018-07-22T22:26:05.212Z,82.40
2018-07-22T22:28:33.493Z,82.60
2018-07-22T22:31:02.557Z,82.80
2018-07-22T22:33:31.165Z,83.30
2018-07-22T22:36:01.185Z,83.60
2018-07-22T22:38:30.074Z,84.70
2018-07-22T22:40:58.799Z,84.40
2018-07-22T22:43:27.577Z,84.80
2018-07-22T22:45:57.535Z,85.00
2018-07-22T22:48:25.805Z,85.50
2018-07-22T22:50:54.085Z,85.90
2018-07-22T22:53:23.689Z,86.40
2018-07-22T22:55:52.962Z,87.00
2018-07-22T22:58:33.197Z,87.40
2018-07-22T23:01:02.994Z,87.90
2018-07-22T23:03:31.874Z,88.70
2018-07-22T23:06:01.057Z,89.30
2018-07-22T23:08:29.824Z,89.70
2018-07-22T23:10:58.879Z,90.50
2018-07-22T23:13:27.096Z,90.40
2018-07-22T23:15:55.664Z,90.80
2018-07-22T23:18:23.909Z,91.00
2018-07-22T23:20:52.755Z,91.40
2018-07-22T23:23:21.628Z,91.80
2018-07-22T23:25:50.143Z,92.10
2018-07-22T23:28:19.009Z,92.30
2018-07-22T23:30:47.861Z,92.50
2018-07-22T23:33:16.373Z,93.00
2018-07-22T23:35:44.925Z,93.70
2018-07-22T23:38:13.794Z,94.10
2018-07-22T23:40:42.315Z,94.50
2018-07-22T23:43:11.170Z,94.90
2018-07-22T23:45:40.401Z,95.30
2018-07-22T23:48:10.488Z,95.70
2018-07-22T23:50:39.329Z,96.10
2018-07-22T23:53:08.513Z,96.30
2018-07-22T23:55:37.110Z,96.50
2018-07-22T23:59:29.919Z,96.70
